Time;durP1;ratioP1;P1;durP2;ratioP2;P2;SDS_P1;SDS_P2;PMS_P1;PMS_P2;Temp;Humidity;BMP_temperature;BMP_pressure;BME280_temperature;BME280_humidity;BME280_pressure;Samples;Min_cycle;Max_cycle;Signal;HPM_P1;HPM_P2
2024/01/31 00:01:17;;;;;;;6.60;0.90;;;6.10;99.90;;;;;;4955231;28;20019;-73
2024/01/31 00:03:44;;;;;;;3.47;0.93;;;6.10;99.90;;;;;;4954835;28;20026;-72
2024/01/31 00:06:13;;;;;;;3.70;0.73;;;6.10;99.90;;;;;;4955710;28;20050;-71
2024/01/31 00:08:38;;;;;;;4.85;0.70;;;6.10;99.90;;;;;;4953753;28;20060;-72
2024/01/31 00:11:05;;;;;;;5.50;0.82;;;6.10;99.90;;;;;;4953502;28;20104;-72
2024/01/31 00:13:30;;;;;;;6.50;1.02;;;6.10;99.90;;;;;;4953299;28;20034;-71
2024/01/31 00:15:56;;;;;;;7.03;0.90;;;6.00;99.90;;;;;;4937836;29;20024;-74
2024/01/31 00:18:22;;;;;;;7.95;0.80;;;6.00;99.90;;;;;;4955376;28;20040;-72
2024/01/31 00:20:47;;;;;;;5.40;0.77;;;6.00;99.90;;;;;;4954141;28;20030;-73
2024/01/31 00:23:13;;;;;;;5.15;1.10;;;6.00;99.90;;;;;;4937429;29;20039;-73
2024/01/31 00:25:38;;;;;;;6.00;0.93;;;6.00;99.90;;;;;;4937628;28;20027;-71
2024/01/31 00:28:04;;;;;;;7.85;1.02;;;5.90;99.90;;;;;;4954927;28;20023;-74
2024/01/31 00:30:29;;;;;;;5.47;1.05;;;5.90;99.90;;;;;;4955565;29;20034;-72
2024/01/31 00:32:55;;;;;;;6.88;1.02;;;5.90;99.90;;;;;;4952456;28;20043;-73
2024/01/31 00:35:21;;;;;;;4.82;1.15;;;5.90;99.90;;;;;;4937705;29;20023;-73
2024/01/31 00:37:46;;;;;;;8.90;1.00;;;5.90;99.90;;;;;;4954047;29;20039;-76
2024/01/31 00:40:12;;;;;;;5.32;0.90;;;5.90;99.90;;;;;;4937498;29;20441;-75
2024/01/31 00:42:38;;;;;;;8.38;1.13;;;5.80;99.90;;;;;;4954281;28;20023;-73
2024/01/31 00:45:07;;;;;;;9.00;1.40;;;5.70;99.90;;;;;;4937012;29;20023;-75
2024/01/31 00:47:33;;;;;;;8.57;1.02;;;5.80;99.90;;;;;;4953820;28;20030;-76
2024/01/31 00:49:58;;;;;;;8.00;1.00;;;5.70;99.90;;;;;;4937141;29;20027;-76
2024/01/31 00:52:24;;;;;;;5.78;0.70;;;5.70;99.90;;;;;;4954921;28;20087;-75
2024/01/31 00:54:50;;;;;;;8.32;1.00;;;5.70;99.90;;;;;;4955183;28;20034;-77
2024/01/31 00:57:16;;;;;;;9.18;1.13;;;5.70;99.90;;;;;;4936647;29;20048;-75
2024/01/31 00:59:42;;;;;;;5.00;0.90;;;5.70;99.90;;;;;;4935443;29;20068;-78
2024/01/31 01:02:08;;;;;;;7.30;1.20;;;5.70;99.90;;;;;;4953859;28;20087;-76
2024/01/31 01:04:34;;;;;;;9.55;1.20;;;5.70;99.90;;;;;;4953198;29;20054;-77
2024/01/31 01:07:00;;;;;;;5.80;1.08;;;5.70;99.90;;;;;;4953922;28;20019;-76
2024/01/31 01:09:26;;;;;;;7.63;1.45;;;5.70;99.90;;;;;;4952131;28;20055;-77
2024/01/31 01:11:52;;;;;;;4.18;1.17;;;5.70;99.90;;;;;;4954209;29;21160;-75
2024/01/31 01:14:17;;;;;;;8.40;1.67;;;5.80;99.90;;;;;;4954168;29;20043;-75
2024/01/31 01:16:43;;;;;;;8.25;1.45;;;5.80;99.90;;;;;;4934400;28;20032;-73
2024/01/31 01:19:09;;;;;;;7.45;1.52;;;5.80;99.90;;;;;;4936269;28;20043;-77
2024/01/31 01:21:35;;;;;;;11.63;1.65;;;5.70;99.90;;;;;;4936224;29;20091;-79
2024/01/31 01:24:01;;;;;;;12.50;1.58;;;5.70;99.90;;;;;;4936355;28;20027;-78
2024/01/31 01:26:26;;;;;;;5.90;1.10;;;5.70;99.90;;;;;;4936001;29;20024;-79
2024/01/31 01:28:52;;;;;;;9.23;1.20;;;5.70;99.90;;;;;;4937485;29;20038;-73
2024/01/31 01:31:18;;;;;;;10.50;2.38;;;5.60;99.90;;;;;;4953981;28;20077;-75
2024/01/31 01:33:44;;;;;;;5.72;0.90;;;5.70;99.90;;;;;;4952263;28;20036;-77
2024/01/31 01:36:09;;;;;;;8.60;1.30;;;5.70;99.90;;;;;;4935485;29;20023;-77
2024/01/31 01:38:36;;;;;;;6.95;1.50;;;5.50;99.90;;;;;;4936478;28;20031;-75
2024/01/31 01:41:03;;;;;;;9.27;1.10;;;5.60;99.90;;;;;;4935192;29;20024;-75
2024/01/31 01:43:28;;;;;;;9.40;1.48;;;5.60;99.90;;;;;;4935306;29;20027;-74
2024/01/31 01:46:03;;;;;;;9.48;2.05;;;5.70;99.90;;;;;;4935427;29;20031;-75
2024/01/31 01:48:28;;;;;;;10.80;1.67;;;5.50;99.90;;;;;;4953477;28;20038;-76
2024/01/31 01:50:54;;;;;;;6.07;1.23;;;5.50;99.90;;;;;;4935992;29;20015;-76
2024/01/31 01:53:19;;;;;;;14.68;1.27;;;5.60;99.90;;;;;;4935697;29;20026;-77
2024/01/31 01:55:45;;;;;;;9.43;1.77;;;5.50;99.90;;;;;;4935744;29;20026;-76
2024/01/31 01:58:11;;;;;;;5.65;1.45;;;5.50;99.90;;;;;;4935305;28;20027;-77
2024/01/31 02:00:38;;;;;;;10.70;1.60;;;5.50;99.90;;;;;;4934946;28;20034;-76
2024/01/31 02:03:05;;;;;;;15.65;1.73;;;5.60;99.90;;;;;;4935239;29;20032;-76
2024/01/31 02:05:31;;;;;;;8.48;1.98;;;5.50;99.90;;;;;;4936094;28;20088;-76
2024/01/31 02:07:58;;;;;;;10.70;1.42;;;5.50;99.90;;;;;;4934535;28;20043;-76
2024/01/31 02:10:24;;;;;;;7.43;1.52;;;5.50;99.90;;;;;;4935303;28;20039;-78
2024/01/31 02:12:49;;;;;;;11.60;1.35;;;5.50;99.90;;;;;;4952328;28;20400;-74
2024/01/31 02:15:15;;;;;;;13.38;1.38;;;5.50;99.90;;;;;;4953165;28;20054;-76
2024/01/31 02:17:40;;;;;;;7.88;1.30;;;5.40;99.90;;;;;;4935886;29;20038;-75
2024/01/31 02:20:07;;;;;;;7.15;1.73;;;5.40;99.90;;;;;;4952810;28;20034;-74
2024/01/31 02:22:32;;;;;;;6.63;1.42;;;5.40;99.90;;;;;;4951381;28;20063;-77
2024/01/31 02:24:59;;;;;;;7.38;1.65;;;5.40;99.90;;;;;;4935593;29;20028;-76
2024/01/31 02:27:25;;;;;;;7.95;1.20;;;5.40;99.90;;;;;;4952530;28;20038;-77
2024/01/31 02:29:50;;;;;;;5.40;1.30;;;5.30;99.90;;;;;;4952565;28;20023;-77
2024/01/31 02:32:16;;;;;;;8.30;1.40;;;5.40;99.90;;;;;;4952129;29;20508;-76
2024/01/31 02:34:41;;;;;;;10.40;1.70;;;5.40;99.90;;;;;;4952814;28;20075;-77
2024/01/31 02:37:07;;;;;;;7.88;1.33;;;5.40;99.90;;;;;;4952952;28;20025;-77
2024/01/31 02:39:33;;;;;;;6.90;1.17;;;5.40;99.90;;;;;;4934849;29;20083;-75
2024/01/31 02:41:59;;;;;;;4.70;1.23;;;5.30;99.90;;;;;;4951617;28;20028;-76
2024/01/31 02:44:24;;;;;;;10.32;1.20;;;5.40;99.90;;;;;;4935459;29;20041;-75
2024/01/31 02:46:50;;;;;;;9.52;1.40;;;5.40;99.90;;;;;;4952681;28;20149;-77
2024/01/31 02:49:15;;;;;;;5.72;1.33;;;5.40;99.90;;;;;;4952624;28;20230;-76
2024/01/31 02:51:41;;;;;;;10.40;1.60;;;5.40;99.90;;;;;;4952595;28;20026;-76
2024/01/31 02:54:07;;;;;;;8.45;1.20;;;5.40;99.90;;;;;;4952256;29;20034;-77
2024/01/31 02:56:32;;;;;;;11.20;1.35;;;5.40;99.90;;;;;;4951425;29;20028;-76
2024/01/31 02:58:58;;;;;;;8.57;1.83;;;5.40;99.90;;;;;;4935251;29;20423;-77
2024/01/31 03:01:23;;;;;;;12.00;1.75;;;5.40;99.90;;;;;;4935519;29;20023;-77
2024/01/31 03:03:49;;;;;;;8.35;1.20;;;5.40;99.90;;;;;;4937213;29;20488;-75
2024/01/31 03:06:14;;;;;;;10.57;1.90;;;5.40;99.90;;;;;;4955539;28;20024;-76
2024/01/31 03:08:40;;;;;;;12.40;1.88;;;5.30;99.90;;;;;;4956016;28;20512;-75
2024/01/31 03:11:05;;;;;;;10.70;1.70;;;5.40;99.90;;;;;;4939095;29;20039;-74
2024/01/31 03:13:31;;;;;;;7.60;1.17;;;5.40;99.90;;;;;;4937911;29;20034;-76
2024/01/31 03:15:56;;;;;;;11.55;1.30;;;5.40;99.90;;;;;;4938932;29;20040;-74
2024/01/31 03:18:22;;;;;;;8.95;1.90;;;5.30;99.90;;;;;;4956341;28;20042;-76
2024/01/31 03:20:47;;;;;;;9.48;1.63;;;5.30;99.90;;;;;;4955789;28;20035;-76
2024/01/31 03:23:13;;;;;;;8.35;1.50;;;5.30;99.90;;;;;;4939247;28;20035;-75
2024/01/31 03:25:38;;;;;;;11.80;1.33;;;5.30;99.90;;;;;;4955831;28;20079;-75
2024/01/31 03:28:04;;;;;;;6.47;1.13;;;5.30;99.90;;;;;;4954730;28;20087;-76
2024/01/31 03:30:30;;;;;;;8.90;1.42;;;5.30;99.90;;;;;;4956189;28;20062;-76
2024/01/31 03:32:55;;;;;;;6.55;1.20;;;5.30;99.90;;;;;;4938568;29;20027;-76
2024/01/31 03:35:22;;;;;;;8.43;1.27;;;5.30;99.90;;;;;;4955699;28;20051;-77
2024/01/31 03:37:47;;;;;;;7.20;1.10;;;5.40;99.90;;;;;;4939356;29;20074;-77
2024/01/31 03:40:13;;;;;;;8.10;1.30;;;5.30;99.90;;;;;;4937813;29;20054;-76
2024/01/31 03:42:38;;;;;;;13.85;1.67;;;5.40;99.90;;;;;;4954723;28;20035;-77
2024/01/31 03:45:05;;;;;;;10.75;1.67;;;5.40;99.90;;;;;;4956622;28;20024;-76
2024/01/31 03:47:34;;;;;;;10.65;1.52;;;5.40;99.90;;;;;;4938715;28;20095;-76
2024/01/31 03:49:59;;;;;;;9.57;1.50;;;5.40;99.90;;;;;;4955185;29;20109;-78
2024/01/31 03:52:25;;;;;;;11.80;1.58;;;5.40;99.90;;;;;;4938543;28;20571;-77
2024/01/31 03:54:51;;;;;;;16.08;1.70;;;5.40;99.90;;;;;;4939016;29;20016;-77
2024/01/31 03:57:16;;;;;;;7.78;2.00;;;5.40;99.90;;;;;;4938405;29;20090;-75
2024/01/31 03:59:42;;;;;;;9.98;1.90;;;5.40;99.90;;;;;;4955104;28;20616;-76
2024/01/31 04:02:07;;;;;;;16.00;1.40;;;5.40;99.90;;;;;;4937762;29;20026;-77
2024/01/31 04:04:33;;;;;;;16.13;1.67;;;5.40;99.90;;;;;;4955026;28;20095;-76
2024/01/31 04:06:58;;;;;;;9.30;1.55;;;5.40;99.90;;;;;;4933199;29;20094;-77
2024/01/31 04:09:24;;;;;;;10.18;1.60;;;5.40;99.90;;;;;;4934452;29;20040;-77
2024/01/31 04:11:49;;;;;;;11.15;1.40;;;5.50;99.90;;;;;;4933923;29;20032;-76
2024/01/31 04:14:15;;;;;;;16.00;1.70;;;5.40;99.90;;;;;;4936959;29;20473;-76
2024/01/31 04:16:41;;;;;;;9.57;1.50;;;5.40;99.90;;;;;;4936186;29;20027;-76
2024/01/31 04:19:07;;;;;;;9.13;1.67;;;5.40;99.90;;;;;;4935090;29;20036;-76
2024/01/31 04:21:32;;;;;;;13.95;1.88;;;5.40;99.90;;;;;;4935075;29;20028;-76
2024/01/31 04:23:58;;;;;;;11.60;2.08;;;5.50;99.90;;;;;;4935109;29;20512;-77
2024/01/31 04:26:24;;;;;;;11.88;1.75;;;5.40;99.90;;;;;;4936388;29;20020;-76
2024/01/31 04:28:49;;;;;;;10.07;1.65;;;5.40;99.90;;;;;;4934069;29;20056;-76
2024/01/31 04:31:15;;;;;;;10.10;1.95;;;5.40;99.90;;;;;;4935629;29;20032;-77
2024/01/31 04:33:42;;;;;;;13.77;1.80;;;5.40;99.90;;;;;;4936241;29;20032;-76
2024/01/31 04:36:08;;;;;;;8.73;1.85;;;5.40;99.90;;;;;;4934960;29;20028;-76
2024/01/31 04:38:33;;;;;;;9.48;1.55;;;5.50;99.90;;;;;;4931521;29;20046;-75
2024/01/31 04:41:00;;;;;;;11.95;1.83;;;5.50;99.90;;;;;;4934692;29;20020;-79
2024/01/31 04:43:25;;;;;;;15.23;1.95;;;5.50;99.90;;;;;;4933981;29;20027;-79
2024/01/31 04:45:51;;;;;;;10.98;1.73;;;5.50;99.90;;;;;;4933038;29;20031;-80
2024/01/31 04:48:16;;;;;;;10.95;1.85;;;5.60;99.90;;;;;;4935475;29;20043;-77
2024/01/31 04:50:42;;;;;;;12.18;1.88;;;5.50;99.90;;;;;;4933916;29;20040;-78
2024/01/31 04:53:08;;;;;;;13.55;1.92;;;5.50;99.90;;;;;;4933552;29;20028;-77
2024/01/31 04:55:33;;;;;;;11.43;1.85;;;5.50;99.90;;;;;;4934336;29;20044;-78
2024/01/31 04:57:59;;;;;;;9.35;1.70;;;5.50;99.90;;;;;;4934508;29;20036;-78
2024/01/31 05:00:26;;;;;;;12.45;1.48;;;5.50;99.90;;;;;;4934146;29;20028;-78
2024/01/31 05:02:51;;;;;;;9.27;1.55;;;5.50;99.90;;;;;;4934672;29;20031;-78
2024/01/31 05:05:19;;;;;;;14.20;1.60;;;5.50;99.90;;;;;;4935588;29;20036;-77
2024/01/31 05:07:45;;;;;;;13.80;1.50;;;5.50;99.90;;;;;;4933883;29;20036;-78
2024/01/31 05:10:11;;;;;;;12.55;1.50;;;5.50;99.90;;;;;;4952103;28;20091;-77
2024/01/31 05:12:37;;;;;;;6.35;1.35;;;5.50;99.90;;;;;;4953939;28;20027;-78
2024/01/31 05:15:04;;;;;;;14.75;1.70;;;5.50;99.90;;;;;;4954278;28;20027;-78
2024/01/31 05:17:30;;;;;;;11.93;1.40;;;5.50;99.90;;;;;;4937780;29;20062;-77
2024/01/31 05:19:56;;;;;;;10.00;1.50;;;5.50;99.90;;;;;;4936993;29;20095;-78
2024/01/31 05:22:21;;;;;;;11.43;1.52;;;5.50;99.90;;;;;;4935448;28;20046;-77
2024/01/31 05:24:47;;;;;;;10.85;1.10;;;5.50;99.90;;;;;;4934754;29;20050;-78
2024/01/31 05:27:13;;;;;;;12.25;1.27;;;5.50;99.90;;;;;;4953261;28;20026;-77
2024/01/31 05:29:38;;;;;;;7.05;0.95;;;5.50;99.90;;;;;;4937411;29;20054;-79
2024/01/31 05:32:04;;;;;;;11.35;1.40;;;5.50;99.90;;;;;;4937009;29;20019;-78
2024/01/31 05:34:30;;;;;;;11.25;1.45;;;5.50;99.90;;;;;;4935028;29;20086;-77
2024/01/31 05:36:55;;;;;;;9.07;1.38;;;5.40;99.90;;;;;;4936645;29;20100;-78
2024/01/31 05:39:21;;;;;;;14.13;1.65;;;5.40;99.90;;;;;;4937155;28;20061;-77
2024/01/31 05:41:46;;;;;;;4.70;1.10;;;5.50;99.90;;;;;;4936276;29;20079;-77
2024/01/31 05:44:12;;;;;;;11.80;1.42;;;5.50;99.90;;;;;;4936842;28;20199;-77
2024/01/31 05:46:38;;;;;;;7.28;1.30;;;5.40;99.90;;;;;;4953671;29;20077;-77
2024/01/31 05:49:03;;;;;;;10.50;1.40;;;5.40;99.90;;;;;;4953629;28;20028;-77
2024/01/31 05:51:29;;;;;;;8.73;1.50;;;5.40;99.90;;;;;;4954032;28;20034;-78
2024/01/31 05:53:55;;;;;;;7.72;1.48;;;5.50;99.90;;;;;;4934949;29;20050;-76
2024/01/31 05:56:21;;;;;;;13.20;1.33;;;5.50;99.90;;;;;;4936535;29;20047;-78
2024/01/31 05:58:48;;;;;;;7.60;0.95;;;5.50;99.90;;;;;;4936236;28;20039;-78
2024/01/31 06:01:13;;;;;;;11.20;1.83;;;5.50;99.90;;;;;;4936641;28;20050;-77
2024/01/31 06:03:39;;;;;;;7.45;1.58;;;5.40;99.90;;;;;;4953110;28;20042;-77
2024/01/31 06:06:06;;;;;;;10.55;1.30;;;5.50;99.90;;;;;;4937465;29;20035;-77
2024/01/31 06:08:32;;;;;;;7.88;0.98;;;5.40;99.90;;;;;;4952824;28;20065;-78
2024/01/31 06:11:04;;;;;;;15.02;1.70;;;5.40;99.90;;;;;;4953308;29;20034;-77
2024/01/31 06:13:30;;;;;;;13.55;1.13;;;5.40;99.90;;;;;;4950531;28;20444;-78
2024/01/31 06:15:56;;;;;;;9.98;1.33;;;5.40;99.90;;;;;;4950472;28;20038;-78
2024/01/31 06:18:22;;;;;;;12.70;1.15;;;5.60;99.90;;;;;;4952417;28;20039;-77
2024/01/31 06:20:49;;;;;;;6.53;1.33;;;5.50;99.90;;;;;;4935614;28;20027;-77
2024/01/31 06:23:14;;;;;;;8.85;1.27;;;5.40;99.90;;;;;;4936325;29;20170;-77
2024/01/31 06:25:40;;;;;;;15.23;1.70;;;5.40;99.90;;;;;;4934833;29;20048;-78
2024/01/31 06:28:06;;;;;;;11.13;1.20;;;5.40;99.90;;;;;;4951704;29;20039;-77
2024/01/31 06:30:34;;;;;;;6.00;1.27;;;5.40;99.90;;;;;;4934909;28;20016;-78
2024/01/31 06:33:06;;;;;;;11.18;1.30;;;5.40;99.90;;;;;;4935994;29;20140;-78
2024/01/31 06:35:32;;;;;;;14.55;1.48;;;5.40;99.90;;;;;;4936175;29;20028;-78
2024/01/31 06:37:57;;;;;;;8.30;1.23;;;5.40;99.90;;;;;;4933223;29;20098;-77
2024/01/31 06:40:24;;;;;;;11.45;1.27;;;5.40;99.90;;;;;;4952688;28;20031;-78
2024/01/31 06:42:49;;;;;;;7.88;1.40;;;5.40;99.90;;;;;;4936866;29;20032;-77
2024/01/31 06:45:15;;;;;;;18.60;1.45;;;5.40;99.90;;;;;;4935637;28;20107;-76
2024/01/31 06:47:41;;;;;;;7.97;1.27;;;5.40;99.90;;;;;;4950318;28;20071;-77
2024/01/31 06:50:06;;;;;;;9.98;1.40;;;5.40;99.90;;;;;;4953831;28;20122;-76
2024/01/31 06:52:32;;;;;;;10.30;1.40;;;5.40;99.90;;;;;;4953073;28;20028;-76
2024/01/31 06:54:58;;;;;;;8.65;1.40;;;5.40;99.90;;;;;;4936190;29;20027;-77
2024/01/31 06:57:23;;;;;;;8.80;1.38;;;5.40;99.90;;;;;;4952911;28;20042;-76
2024/01/31 06:59:49;;;;;;;10.02;1.30;;;5.30;99.90;;;;;;4935471;29;20098;-76
2024/01/31 07:02:14;;;;;;;5.63;1.27;;;5.40;99.90;;;;;;4933373;29;20034;-77
2024/01/31 07:04:40;;;;;;;13.25;1.83;;;5.40;99.90;;;;;;4930477;28;20031;-77
2024/01/31 07:07:05;;;;;;;12.82;1.52;;;5.40;99.90;;;;;;4951584;28;20027;-76
2024/01/31 07:09:32;;;;;;;11.02;1.50;;;5.40;99.90;;;;;;4951217;28;20043;-76
2024/01/31 07:11:59;;;;;;;15.68;1.45;;;5.40;99.90;;;;;;4951595;28;20051;-76
2024/01/31 07:14:25;;;;;;;6.05;1.25;;;5.50;99.90;;;;;;4951384;29;20015;-77
2024/01/31 07:16:50;;;;;;;11.32;1.20;;;5.40;99.90;;;;;;4946075;28;20127;-76
2024/01/31 07:19:16;;;;;;;6.65;1.17;;;5.40;99.90;;;;;;4950112;28;20094;-76
2024/01/31 07:21:42;;;;;;;10.63;1.38;;;5.40;99.90;;;;;;4934253;29;20792;-77
2024/01/31 07:24:07;;;;;;;8.55;1.42;;;5.40;99.90;;;;;;4947147;29;20079;-76
2024/01/31 07:26:33;;;;;;;9.48;1.40;;;5.40;99.90;;;;;;4928679;28;20050;-77
2024/01/31 07:29:01;;;;;;;6.95;1.25;;;5.40;99.90;;;;;;4931282;28;20115;-77
2024/01/31 07:31:26;;;;;;;6.90;0.88;;;5.30;99.90;;;;;;4934280;28;20103;-77
2024/01/31 07:33:52;;;;;;;9.40;1.30;;;5.40;99.90;;;;;;4934104;29;20058;-76
2024/01/31 07:36:19;;;;;;;8.05;1.60;;;5.40;99.90;;;;;;4949763;28;20070;-77
2024/01/31 07:38:46;;;;;;;9.40;1.13;;;5.40;99.90;;;;;;4933992;29;20047;-77
2024/01/31 07:41:12;;;;;;;10.40;1.40;;;5.60;99.90;;;;;;4935879;29;20059;-76
2024/01/31 07:43:38;;;;;;;8.38;1.25;;;5.50;99.90;;;;;;4949897;28;20015;-77
2024/01/31 07:46:04;;;;;;;14.45;1.83;;;5.60;99.90;;;;;;4953022;28;20023;-77
2024/01/31 07:48:30;;;;;;;15.93;2.05;;;5.50;99.90;;;;;;4933078;29;20028;-77
2024/01/31 07:50:56;;;;;;;7.55;1.38;;;5.50;99.90;;;;;;4937658;29;20036;-78
2024/01/31 07:53:21;;;;;;;9.40;2.15;;;5.50;99.90;;;;;;4955066;28;20028;-74
2024/01/31 07:55:47;;;;;;;11.07;1.52;;;5.50;99.90;;;;;;4954229;28;20039;-78
2024/01/31 07:58:12;;;;;;;16.40;2.13;;;5.50;99.90;;;;;;4931553;29;20032;-77
2024/01/31 08:00:38;;;;;;;4.70;1.55;;;5.60;99.90;;;;;;4939471;28;20175;-77
2024/01/31 08:03:04;;;;;;;7.45;1.75;;;5.50;99.90;;;;;;4953060;28;20076;-78
2024/01/31 08:05:29;;;;;;;9.30;1.23;;;5.50;99.90;;;;;;4937144;29;20024;-77
2024/01/31 08:07:55;;;;;;;7.38;1.50;;;5.50;99.90;;;;;;4937557;29;20016;-77
2024/01/31 08:10:20;;;;;;;14.52;2.72;;;5.50;99.90;;;;;;4937256;28;20493;-77
2024/01/31 08:12:46;;;;;;;11.63;2.72;;;5.50;99.90;;;;;;4937849;28;20024;-78
2024/01/31 08:15:12;;;;;;;9.60;1.90;;;5.50;99.90;;;;;;4938692;28;20041;-78
2024/01/31 08:17:38;;;;;;;7.90;1.67;;;5.50;99.90;;;;;;4955769;28;20118;-77
2024/01/31 08:20:06;;;;;;;11.73;1.65;;;5.50;99.90;;;;;;4937386;29;20019;-78
2024/01/31 08:22:33;;;;;;;7.10;1.95;;;5.60;99.90;;;;;;4950633;28;20035;-78
2024/01/31 08:24:59;;;;;;;10.93;2.70;;;5.50;99.90;;;;;;4952538;28;20035;-77
2024/01/31 08:27:25;;;;;;;14.82;2.35;;;5.60;99.90;;;;;;4954041;28;20119;-78
2024/01/31 08:29:51;;;;;;;9.80;2.25;;;5.60;99.90;;;;;;4938527;28;20019;-77
2024/01/31 08:32:17;;;;;;;5.55;1.50;;;5.60;99.90;;;;;;4953500;28;20282;-76
2024/01/31 08:34:43;;;;;;;7.53;1.65;;;5.60;99.90;;;;;;4953906;28;20030;-78
2024/01/31 08:37:08;;;;;;;10.48;2.10;;;5.60;99.90;;;;;;4936277;29;20028;-78
2024/01/31 08:39:34;;;;;;;4.38;1.30;;;5.70;99.90;;;;;;4936045;29;20044;-76
2024/01/31 08:41:59;;;;;;;7.10;1.70;;;5.70;99.90;;;;;;4935860;29;20028;-77
2024/01/31 08:44:25;;;;;;;10.48;1.73;;;5.60;99.90;;;;;;4930723;29;20047;-78
2024/01/31 08:46:52;;;;;;;7.57;1.63;;;5.60;99.90;;;;;;4952781;28;20027;-75
2024/01/31 08:49:18;;;;;;;9.20;1.50;;;5.70;99.90;;;;;;4935424;29;20102;-77
2024/01/31 08:51:43;;;;;;;7.78;1.25;;;5.70;99.90;;;;;;4953626;28;20099;-76
2024/01/31 08:54:09;;;;;;;7.97;1.30;;;5.60;99.90;;;;;;4954355;28;20030;-76
2024/01/31 08:56:35;;;;;;;7.75;1.23;;;5.70;99.90;;;;;;4937542;28;20471;-77
2024/01/31 08:59:00;;;;;;;16.73;1.85;;;5.70;99.90;;;;;;4953038;29;20059;-76
2024/01/31 09:01:26;;;;;;;9.10;1.10;;;5.70;99.90;;;;;;4953642;28;20031;-76
2024/01/31 09:03:52;;;;;;;3.45;1.23;;;5.70;99.90;;;;;;4951097;29;20400;-79
2024/01/31 09:06:18;;;;;;;6.72;1.30;;;5.80;99.90;;;;;;4950200;29;20443;-76
2024/01/31 09:08:43;;;;;;;10.40;1.35;;;5.80;99.90;;;;;;4953267;28;20136;-76
2024/01/31 09:11:09;;;;;;;8.18;1.60;;;5.80;99.90;;;;;;4937903;28;20043;-77
2024/01/31 09:13:35;;;;;;;6.25;1.27;;;5.90;99.90;;;;;;4937635;29;20024;-75
2024/01/31 09:16:01;;;;;;;10.23;1.75;;;5.80;99.90;;;;;;4938099;29;20397;-76
2024/01/31 09:18:28;;;;;;;10.10;1.38;;;5.70;99.90;;;;;;4953698;28;20051;-74
2024/01/31 09:20:53;;;;;;;4.50;1.42;;;5.90;99.90;;;;;;4953952;29;20028;-76
2024/01/31 09:23:19;;;;;;;7.53;1.42;;;5.80;99.90;;;;;;4954715;28;20038;-75
2024/01/31 09:25:44;;;;;;;6.53;1.17;;;5.90;99.90;;;;;;4937496;29;20472;-74
2024/01/31 09:28:10;;;;;;;6.28;1.60;;;5.80;99.90;;;;;;4952756;28;20039;-75
2024/01/31 09:30:35;;;;;;;11.02;1.80;;;5.80;99.90;;;;;;4954244;28;20040;-75
2024/01/31 09:33:02;;;;;;;5.07;1.48;;;5.80;99.90;;;;;;4937039;29;20067;-75
2024/01/31 09:35:28;;;;;;;9.13;1.52;;;5.90;99.90;;;;;;4949318;28;20028;-76
2024/01/31 09:37:54;;;;;;;2.90;1.17;;;5.80;99.90;;;;;;4952751;28;20042;-76
2024/01/31 09:40:22;;;;;;;7.45;1.42;;;5.90;99.90;;;;;;4935290;29;20027;-77
2024/01/31 09:42:49;;;;;;;5.25;1.42;;;5.90;99.90;;;;;;4932655;29;20106;-77
2024/01/31 09:45:16;;;;;;;9.13;1.40;;;5.80;99.90;;;;;;4935719;29;20074;-77
2024/01/31 09:47:46;;;;;;;5.13;1.40;;;5.80;99.90;;;;;;4953261;28;20043;-75
2024/01/31 09:50:12;;;;;;;6.80;1.98;;;5.90;99.90;;;;;;4953389;28;20023;-77
2024/01/31 09:52:40;;;;;;;5.85;1.83;;;6.00;99.90;;;;;;4954021;28;20023;-76
2024/01/31 09:55:09;;;;;;;6.05;1.67;;;5.90;99.90;;;;;;4953597;29;20027;-76
2024/01/31 09:57:35;;;;;;;5.68;1.63;;;5.90;99.90;;;;;;4936889;29;20035;-76
2024/01/31 10:00:05;;;;;;;7.75;1.45;;;5.90;99.90;;;;;;4937235;29;20027;-78
2024/01/31 10:02:31;;;;;;;10.05;2.45;;;5.90;99.90;;;;;;4952479;29;20116;-76
2024/01/31 10:04:57;;;;;;;9.63;1.83;;;5.90;99.90;;;;;;4937006;29;20099;-75
2024/01/31 10:07:23;;;;;;;7.13;1.60;;;6.00;99.90;;;;;;4953073;29;20027;-74
2024/01/31 10:09:50;;;;;;;8.52;1.45;;;5.90;99.90;;;;;;4936058;29;20101;-76
2024/01/31 10:12:18;;;;;;;4.68;1.40;;;5.80;99.90;;;;;;4936575;29;20016;-75
2024/01/31 10:14:44;;;;;;;8.10;1.70;;;5.90;99.90;;;;;;4937367;29;20571;-77
2024/01/31 10:17:09;;;;;;;5.65;1.50;;;5.90;99.90;;;;;;4936292;29;20024;-77
2024/01/31 10:19:35;;;;;;;8.00;1.40;;;5.90;99.90;;;;;;4952190;28;20028;-77
2024/01/31 10:22:00;;;;;;;3.88;1.35;;;6.00;99.90;;;;;;4936184;29;20028;-74
2024/01/31 10:24:26;;;;;;;9.27;1.63;;;6.00;99.90;;;;;;4951581;28;20046;-77
2024/01/31 10:26:51;;;;;;;7.28;1.85;;;5.90;99.90;;;;;;4936217;29;20062;-75
2024/01/31 10:29:18;;;;;;;5.60;1.98;;;6.00;99.90;;;;;;4953674;28;20031;-77
2024/01/31 10:31:46;;;;;;;7.13;1.70;;;6.00;99.90;;;;;;4933380;29;20763;-77
2024/01/31 10:34:13;;;;;;;9.68;1.52;;;6.10;99.90;;;;;;4934693;29;20054;-76
2024/01/31 10:36:40;;;;;;;7.72;1.38;;;6.00;99.90;;;;;;4934780;29;20031;-77
2024/01/31 10:39:09;;;;;;;5.75;1.55;;;6.00;99.90;;;;;;4949736;28;20043;-76
2024/01/31 10:41:35;;;;;;;8.18;1.65;;;6.10;99.90;;;;;;4952140;29;20047;-73
2024/01/31 10:44:05;;;;;;;8.02;1.52;;;6.00;99.90;;;;;;4950847;28;20496;-74
2024/01/31 10:46:31;;;;;;;4.47;1.73;;;6.10;99.90;;;;;;4932242;29;20040;-74
2024/01/31 10:48:56;;;;;;;6.75;1.70;;;6.00;99.90;;;;;;4950230;28;20038;-77
2024/01/31 10:51:23;;;;;;;5.10;1.70;;;6.00;99.90;;;;;;4934109;29;20055;-77
2024/01/31 10:53:51;;;;;;;7.47;1.60;;;6.00;99.90;;;;;;4933717;29;20027;-78
2024/01/31 10:56:19;;;;;;;6.00;1.60;;;6.00;99.90;;;;;;4951514;28;20023;-77
2024/01/31 10:58:46;;;;;;;5.28;1.50;;;6.10;99.90;;;;;;4951332;28;20169;-75
2024/01/31 11:01:14;;;;;;;3.85;1.63;;;6.10;99.90;;;;;;4950867;28;20118;-74
2024/01/31 11:03:47;;;;;;;5.03;1.80;;;6.00;99.90;;;;;;4937516;29;20098;-77
2024/01/31 11:06:12;;;;;;;7.28;1.88;;;6.10;99.90;;;;;;4932156;29;20038;-77
2024/01/31 11:08:41;;;;;;;9.98;1.95;;;6.10;99.90;;;;;;4951469;28;20047;-73
2024/01/31 11:11:10;;;;;;;5.28;2.03;;;6.10;99.90;;;;;;4950034;28;20396;-76
2024/01/31 11:13:36;;;;;;;5.20;1.90;;;6.10;99.90;;;;;;4939123;29;20028;-76
2024/01/31 11:16:03;;;;;;;5.13;2.00;;;6.10;99.90;;;;;;4948913;28;20235;-75
2024/01/31 11:18:29;;;;;;;5.60;2.17;;;6.10;99.90;;;;;;4933505;29;20138;-76
2024/01/31 11:20:56;;;;;;;7.60;2.45;;;6.10;99.90;;;;;;4934411;29;20050;-74
2024/01/31 11:23:23;;;;;;;8.30;2.60;;;6.20;99.90;;;;;;4950720;28;20385;-74
2024/01/31 11:25:50;;;;;;;7.88;2.60;;;6.20;99.90;;;;;;4954513;28;20025;-75
2024/01/31 11:28:17;;;;;;;8.35;3.10;;;6.20;99.90;;;;;;4936356;29;20027;-79
2024/01/31 11:30:51;;;;;;;8.00;3.40;;;6.20;99.90;;;;;;4954435;28;20028;-78
2024/01/31 11:33:18;;;;;;;7.40;3.42;;;6.20;99.90;;;;;;4939523;29;20058;-74
2024/01/31 11:35:44;;;;;;;11.73;4.05;;;6.20;99.90;;;;;;4939623;29;20035;-78
2024/01/31 11:38:10;;;;;;;10.32;3.97;;;6.20;99.90;;;;;;4937493;28;20035;-73
2024/01/31 11:40:35;;;;;;;14.25;4.55;;;6.10;99.90;;;;;;4955041;28;20044;-79
2024/01/31 11:43:04;;;;;;;9.38;3.85;;;6.10;99.90;;;;;;4936043;29;20044;-77
2024/01/31 11:45:30;;;;;;;7.28;3.92;;;6.20;99.90;;;;;;4937725;29;20053;-73
2024/01/31 11:47:57;;;;;;;9.27;3.88;;;6.20;99.90;;;;;;4939023;29;20062;-76
2024/01/31 11:50:24;;;;;;;7.70;4.13;;;6.20;99.90;;;;;;4937377;29;20027;-77
2024/01/31 11:52:50;;;;;;;7.18;4.10;;;6.10;99.90;;;;;;4953828;29;20043;-75
2024/01/31 11:55:21;;;;;;;15.73;3.53;;;6.20;99.90;;;;;;4939316;28;20036;-77
2024/01/31 11:57:46;;;;;;;5.30;2.85;;;6.10;99.90;;;;;;4936351;29;20400;-75
2024/01/31 12:00:13;;;;;;;5.20;2.33;;;6.10;99.90;;;;;;4938650;29;20091;-73
2024/01/31 12:02:38;;;;;;;15.98;6.13;;;6.10;99.90;;;;;;4936618;29;20027;-74
2024/01/31 12:05:05;;;;;;;14.07;6.47;;;6.10;99.90;;;;;;4939106;29;20027;-76
2024/01/31 12:07:30;;;;;;;10.75;3.90;;;6.10;99.90;;;;;;4937917;29;20024;-76
2024/01/31 12:09:56;;;;;;;10.13;3.60;;;6.20;99.90;;;;;;4938273;29;20086;-72
2024/01/31 12:12:22;;;;;;;12.00;3.97;;;6.20;99.90;;;;;;4937202;29;20042;-76
2024/01/31 12:14:47;;;;;;;8.20;3.22;;;6.30;99.90;;;;;;4936379;29;20042;-76
2024/01/31 12:17:25;;;;;;;8.55;3.50;;;6.40;99.90;;;;;;4955936;28;20031;-78
2024/01/31 12:20:04;;;;;;;7.28;3.03;;;6.50;99.90;;;;;;4937497;29;20031;-77
2024/01/31 12:22:31;;;;;;;8.93;3.17;;;6.50;99.90;;;;;;4955172;28;20034;-78
2024/01/31 12:24:57;;;;;;;6.20;3.05;;;6.60;99.90;;;;;;4936314;29;20059;-75
2024/01/31 12:27:22;;;;;;;9.80;3.20;;;6.60;99.90;;;;;;4938313;29;20034;-77
2024/01/31 12:29:48;;;;;;;7.38;3.13;;;6.50;99.90;;;;;;4938415;29;20027;-76
2024/01/31 12:32:13;;;;;;;10.00;3.47;;;6.60;99.90;;;;;;4954705;28;20042;-79
2024/01/31 12:34:39;;;;;;;6.95;3.65;;;6.50;99.90;;;;;;4953432;28;20481;-79
2024/01/31 12:37:05;;;;;;;10.73;3.47;;;6.50;99.90;;;;;;4956273;28;20047;-77
2024/01/31 12:39:35;;;;;;;13.20;3.70;;;6.50;99.90;;;;;;4933458;29;20130;-79
2024/01/31 12:42:01;;;;;;;14.15;3.72;;;6.50;99.90;;;;;;4937739;29;20038;-76
2024/01/31 12:44:27;;;;;;;7.47;4.10;;;6.50;99.90;;;;;;4955301;28;20059;-77
2024/01/31 12:46:53;;;;;;;6.38;3.65;;;6.40;99.90;;;;;;4937797;29;20020;-77